Time;durP1;ratioP1;P1;durP2;ratioP2;P2;SDS_P1;SDS_P2;PMS_P1;PMS_P2;Temp;Humidity;BMP_temperature;BMP_pressure;BME280_temperature;BME280_humidity;BME280_pressure;Samples;Min_cycle;Max_cycle;Signal;HPM_P1;HPM_P2
2023/01/05 00:01:20;;;;;;;43.60;7.40;;;11.20;99.90;;;;;;5052333;28;20013;-74
2023/01/05 00:03:46;;;;;;;45.63;6.35;;;11.20;99.90;;;;;;5045791;28;20026;-75
2023/01/05 00:06:14;;;;;;;44.78;6.13;;;11.20;99.90;;;;;;5044663;28;20045;-75
2023/01/05 00:08:40;;;;;;;51.45;7.15;;;11.20;99.90;;;;;;5052373;28;20044;-75
2023/01/05 00:22:30;;;;;;;52.45;6.38;;;11.10;99.90;;;;;;5052545;28;20398;-74
2023/01/05 00:25:00;;;;;;;54.00;7.35;;;11.10;99.90;;;;;;5052348;28;20387;-74
2023/01/05 00:27:26;;;;;;;40.35;5.78;;;11.00;99.90;;;;;;5051445;28;20021;-74
2023/01/05 00:29:51;;;;;;;47.42;6.65;;;11.00;99.90;;;;;;5051952;28;20025;-75
2023/01/05 00:32:17;;;;;;;45.03;6.82;;;11.00;99.90;;;;;;5051546;28;20047;-74
2023/01/05 00:34:43;;;;;;;45.50;7.32;;;11.00;99.90;;;;;;5051791;28;20036;-75
2023/01/05 00:37:08;;;;;;;46.30;7.45;;;11.00;99.90;;;;;;5051851;28;20025;-75
2023/01/05 00:39:34;;;;;;;49.83;6.93;;;11.00;99.90;;;;;;5051108;28;20070;-74
2023/01/05 00:41:59;;;;;;;48.35;7.10;;;11.00;99.90;;;;;;5051658;28;20075;-75
2023/01/05 00:44:25;;;;;;;40.05;6.03;;;11.00;99.90;;;;;;5051781;28;20021;-75
2023/01/05 00:46:51;;;;;;;47.95;6.45;;;11.00;99.90;;;;;;5033906;28;20021;-74
2023/01/05 00:49:16;;;;;;;51.00;6.70;;;10.90;99.90;;;;;;5051329;28;20063;-74
2023/01/05 00:51:42;;;;;;;45.75;6.65;;;10.90;99.90;;;;;;5051817;28;20104;-74
2023/01/05 00:54:08;;;;;;;46.83;6.90;;;10.90;99.90;;;;;;5037224;28;20036;-75
2023/01/05 00:56:33;;;;;;;47.85;6.70;;;10.90;99.90;;;;;;5052084;28;20070;-75
2023/01/05 00:58:59;;;;;;;52.33;7.45;;;10.90;99.90;;;;;;5062401;28;20044;-74
2023/01/05 01:01:24;;;;;;;52.50;6.72;;;10.90;99.90;;;;;;5056437;28;20074;-75
2023/01/05 01:03:50;;;;;;;47.03;7.13;;;10.90;99.90;;;;;;5051675;28;20020;-74
2023/01/05 01:06:16;;;;;;;53.88;6.70;;;10.90;99.90;;;;;;5051274;28;20171;-75
2023/01/05 01:08:42;;;;;;;40.60;6.45;;;10.90;99.90;;;;;;5051035;28;20099;-74
2023/01/05 01:11:09;;;;;;;59.50;7.35;;;10.80;99.90;;;;;;5051150;28;20072;-75
2023/01/05 01:13:37;;;;;;;53.80;6.68;;;10.80;99.90;;;;;;5051117;28;20028;-75
2023/01/05 01:16:08;;;;;;;45.22;6.35;;;10.80;99.90;;;;;;5050919;28;20029;-74
2023/01/05 01:18:34;;;;;;;53.03;7.75;;;10.80;99.90;;;;;;5051053;28;20025;-74
2023/01/05 01:21:00;;;;;;;58.03;7.20;;;10.80;99.90;;;;;;5051116;28;20033;-74
2023/01/05 01:23:26;;;;;;;43.60;7.03;;;10.80;99.90;;;;;;5050625;28;20032;-75
2023/01/05 01:25:51;;;;;;;59.72;7.78;;;10.90;99.90;;;;;;5051158;28;20478;-74
2023/01/05 01:28:17;;;;;;;45.38;6.22;;;10.80;99.90;;;;;;5051161;28;20275;-74
2023/01/05 01:30:42;;;;;;;43.72;6.93;;;10.90;99.90;;;;;;5032769;28;20025;-75
2023/01/05 01:33:08;;;;;;;49.20;6.60;;;10.90;99.90;;;;;;5033259;28;20029;-75
2023/01/05 01:35:37;;;;;;;45.33;7.13;;;10.90;99.90;;;;;;5035923;28;20434;-74
2023/01/05 01:38:03;;;;;;;45.97;6.82;;;10.80;99.90;;;;;;5050505;28;20025;-74
2023/01/05 01:40:28;;;;;;;46.42;6.57;;;10.80;99.90;;;;;;5050674;28;20064;-74
2023/01/05 01:42:54;;;;;;;42.85;6.25;;;10.90;99.90;;;;;;5050856;28;20067;-74
2023/01/05 01:45:22;;;;;;;49.20;6.88;;;10.80;99.90;;;;;;5050498;28;20029;-74
2023/01/05 01:47:53;;;;;;;51.95;6.88;;;10.90;99.90;;;;;;5036270;28;20021;-74
2023/01/05 01:50:28;;;;;;;41.30;6.65;;;10.80;99.90;;;;;;5051012;28;20032;-74
2023/01/05 01:52:57;;;;;;;;;;;10.80;99.90;;;;;;5050839;28;20115;-75
2023/01/05 01:55:23;;;;;;;43.75;6.18;;;10.80;99.90;;;;;;5044021;28;20233;-74
2023/01/05 01:57:50;;;;;;;42.38;6.25;;;10.80;99.90;;;;;;5049511;28;20029;-75
2023/01/05 02:00:17;;;;;;;41.40;5.82;;;10.90;99.90;;;;;;5050398;28;20032;-74
2023/01/05 02:02:45;;;;;;;48.95;6.38;;;10.80;99.90;;;;;;5050509;28;20390;-75
2023/01/05 02:05:15;;;;;;;44.25;7.20;;;10.90;99.90;;;;;;5050246;28;20409;-74
2023/01/05 02:07:44;;;;;;;42.80;5.80;;;10.90;99.90;;;;;;5050327;28;20382;-75
2023/01/05 02:10:11;;;;;;;48.25;6.00;;;10.90;99.90;;;;;;5050470;28;20398;-75
2023/01/05 02:13:36;;;;;;;41.45;6.00;;;10.90;99.90;;;;;;5053598;28;20016;-75
2023/01/05 02:16:25;;;;;;;38.85;5.93;;;10.90;99.90;;;;;;5008059;28;20049;-75
2023/01/05 02:19:30;;;;;;;42.75;5.68;;;10.90;99.90;;;;;;5007954;28;20037;-75
2023/01/05 02:22:19;;;;;;;41.30;5.95;;;10.90;99.90;;;;;;5000241;28;20105;-75
2023/01/05 02:24:57;;;;;;;44.20;6.18;;;10.90;99.90;;;;;;5008154;28;20038;-75
2023/01/05 02:27:25;;;;;;;46.20;6.65;;;10.90;99.90;;;;;;5007948;28;20037;-75
2023/01/05 02:30:03;;;;;;;41.90;5.68;;;10.90;99.90;;;;;;5017195;28;20044;-75
2023/01/05 02:32:56;;;;;;;40.92;6.43;;;10.90;99.90;;;;;;5007863;28;20033;-75
2023/01/05 02:35:44;;;;;;;42.25;6.18;;;10.90;99.90;;;;;;4988760;28;20035;-75
2023/01/05 02:38:38;;;;;;;36.83;5.53;;;10.90;99.90;;;;;;4972556;28;20050;-75
2023/01/05 02:41:29;;;;;;;47.22;6.13;;;10.90;99.90;;;;;;5008017;28;20129;-75
2023/01/05 02:43:56;;;;;;;47.15;6.38;;;10.90;99.90;;;;;;4988318;28;20125;-75
2023/01/05 02:46:22;;;;;;;40.28;6.03;;;10.90;99.90;;;;;;4994616;28;20522;-75
2023/01/05 02:48:50;;;;;;;43.55;6.78;;;10.90;99.90;;;;;;5013369;28;20029;-75
2023/01/05 02:51:21;;;;;;;33.80;5.75;;;10.90;99.90;;;;;;5050322;28;20519;-75
2023/01/05 02:53:52;;;;;;;35.78;5.70;;;10.90;99.90;;;;;;5049973;28;20109;-74
2023/01/05 02:56:25;;;;;;;38.72;5.78;;;11.00;99.90;;;;;;5044413;28;20053;-74
2023/01/05 02:59:10;;;;;;;45.83;5.88;;;11.00;99.90;;;;;;5035741;28;20021;-75
2023/01/05 03:01:40;;;;;;;49.10;6.10;;;11.00;99.90;;;;;;5041645;28;20502;-75
2023/01/05 03:04:15;;;;;;;37.60;5.82;;;11.00;99.90;;;;;;5052900;28;20056;-75
2023/01/05 03:06:55;;;;;;;47.05;5.72;;;11.10;99.90;;;;;;5063377;28;20044;-75
2023/01/05 03:09:25;;;;;;;40.28;6.38;;;11.00;99.90;;;;;;5059298;28;20032;-75
2023/01/05 03:14:51;;;;;;;41.55;6.10;;;11.10;99.90;;;;;;5046789;28;20032;-75
2023/01/05 03:17:25;;;;;;;42.97;6.18;;;11.10;99.90;;;;;;5052978;28;20021;-75
2023/01/05 03:19:52;;;;;;;36.17;5.63;;;11.10;99.90;;;;;;5053203;28;20059;-75
2023/01/05 03:36:54;;;;;;;42.20;5.15;;;11.10;99.90;;;;;;5053110;28;20036;-75
2023/01/05 03:39:25;;;;;;;39.60;5.63;;;11.10;99.90;;;;;;5052744;28;20134;-75
2023/01/05 03:41:52;;;;;;;48.25;6.43;;;11.10;99.90;;;;;;5053064;28;20166;-75
2023/01/05 03:44:18;;;;;;;43.80;5.68;;;11.10;99.90;;;;;;5053219;28;20468;-75
2023/01/05 03:46:43;;;;;;;49.60;6.18;;;11.10;99.90;;;;;;5052980;28;20044;-75
2023/01/05 03:49:10;;;;;;;38.45;5.70;;;11.10;99.90;;;;;;5051954;28;20506;-75
2023/01/05 03:51:35;;;;;;;46.78;6.18;;;11.10;99.90;;;;;;5052755;28;20031;-74
2023/01/05 03:54:01;;;;;;;42.20;6.55;;;11.10;99.90;;;;;;5052588;28;20033;-75
2023/01/05 03:56:27;;;;;;;42.67;6.90;;;11.10;99.90;;;;;;5053039;28;20021;-75
2023/01/05 03:58:52;;;;;;;49.35;6.45;;;11.10;99.90;;;;;;5031763;28;20494;-74
2023/01/05 04:01:18;;;;;;;46.42;6.25;;;11.10;99.90;;;;;;5046038;28;20095;-75
2023/01/05 04:03:44;;;;;;;46.08;5.85;;;11.10;99.90;;;;;;5044508;28;20021;-75
2023/01/05 04:06:09;;;;;;;43.55;6.65;;;11.10;99.90;;;;;;5048780;28;20076;-75
2023/01/05 04:08:35;;;;;;;53.22;7.20;;;11.10;99.90;;;;;;5042610;28;20021;-75
2023/01/05 04:11:11;;;;;;;49.65;6.43;;;11.10;99.90;;;;;;5050922;28;20493;-75
2023/01/05 04:13:36;;;;;;;43.47;5.63;;;11.10;99.90;;;;;;5041065;28;20064;-75
2023/01/05 04:16:02;;;;;;;51.08;6.50;;;11.10;99.90;;;;;;5035809;28;20048;-75
2023/01/05 04:18:28;;;;;;;46.90;6.38;;;11.00;99.90;;;;;;5039041;28;20340;-75
2023/01/05 04:20:54;;;;;;;45.00;6.45;;;11.00;99.90;;;;;;5052540;28;20021;-75
2023/01/05 04:23:20;;;;;;;39.75;5.88;;;11.10;99.90;;;;;;5051947;28;20417;-75
2023/01/05 04:25:46;;;;;;;45.03;6.38;;;11.10;99.90;;;;;;5052412;28;20024;-75
2023/01/05 04:28:12;;;;;;;41.38;6.78;;;11.00;99.90;;;;;;5052525;28;20025;-74
2023/01/05 04:30:37;;;;;;;43.00;6.20;;;11.00;99.90;;;;;;5052192;28;20067;-75
2023/01/05 04:33:03;;;;;;;49.53;6.60;;;11.00;99.90;;;;;;5052132;28;20491;-74
2023/01/05 04:35:29;;;;;;;53.35;7.25;;;11.00;99.90;;;;;;5051990;28;20021;-75
2023/01/05 04:37:54;;;;;;;47.50;6.50;;;11.00;99.90;;;;;;5065966;28;20570;-75
2023/01/05 04:40:20;;;;;;;50.42;6.95;;;11.00;99.90;;;;;;5065450;28;20147;-75
2023/01/05 04:42:46;;;;;;;44.28;6.90;;;11.00;99.90;;;;;;5051851;28;20040;-75
2023/01/05 04:45:12;;;;;;;44.17;6.60;;;11.00;99.90;;;;;;5051820;28;20424;-74
2023/01/05 04:47:37;;;;;;;53.30;6.68;;;11.00;99.90;;;;;;5051696;28;20017;-75
2023/01/05 04:50:03;;;;;;;50.75;6.90;;;11.00;99.90;;;;;;5048762;28;20021;-74
2023/01/05 04:52:29;;;;;;;49.90;6.45;;;11.00;99.90;;;;;;5040343;28;20367;-74
2023/01/05 04:54:55;;;;;;;49.47;6.30;;;11.00;99.90;;;;;;5047964;28;20040;-75
2023/01/05 04:57:20;;;;;;;53.75;7.35;;;11.00;99.90;;;;;;5037722;28;20482;-75
2023/01/05 04:59:46;;;;;;;51.00;7.20;;;11.00;99.90;;;;;;5063318;28;20505;-75
2023/01/05 05:02:11;;;;;;;54.47;6.72;;;11.00;99.90;;;;;;5066861;28;20017;-74
2023/01/05 05:04:37;;;;;;;57.50;7.13;;;10.90;99.90;;;;;;5061161;28;20032;-75
2023/01/05 05:07:03;;;;;;;47.38;6.60;;;10.90;99.90;;;;;;5071243;28;20055;-75
2023/01/05 05:09:28;;;;;;;54.85;6.90;;;10.90;99.90;;;;;;5071476;28;20028;-74
2023/01/05 05:11:54;;;;;;;54.10;7.88;;;10.90;99.90;;;;;;5071451;28;20351;-75
2023/01/05 05:14:19;;;;;;;52.88;7.50;;;10.90;99.90;;;;;;5061383;28;20039;-75
2023/01/05 05:16:45;;;;;;;48.13;6.93;;;10.90;99.90;;;;;;5045560;28;20049;-75
2023/01/05 05:19:11;;;;;;;53.80;6.90;;;10.90;99.90;;;;;;5048363;28;20020;-75
2023/01/05 05:21:36;;;;;;;49.72;6.88;;;10.90;99.90;;;;;;5051218;28;20074;-75
2023/01/05 05:24:02;;;;;;;48.50;7.07;;;10.90;99.90;;;;;;5033382;28;20029;-75
2023/01/05 05:26:28;;;;;;;58.55;7.72;;;10.90;99.90;;;;;;5050628;28;20387;-75
2023/01/05 05:28:53;;;;;;;50.38;6.88;;;10.90;99.90;;;;;;5050987;28;20048;-75
2023/01/05 05:31:19;;;;;;;47.17;6.40;;;10.90;99.90;;;;;;5050499;28;20060;-75
2023/01/05 05:33:45;;;;;;;50.78;7.03;;;10.90;99.90;;;;;;5038890;28;20032;-74
2023/01/05 05:36:10;;;;;;;42.85;6.68;;;10.90;99.90;;;;;;5051106;28;20071;-75
2023/01/05 05:38:36;;;;;;;50.83;7.40;;;10.90;99.90;;;;;;5051005;28;20032;-75
2023/01/05 05:41:02;;;;;;;48.22;6.72;;;10.90;99.90;;;;;;5050885;28;20025;-74
2023/01/05 05:43:27;;;;;;;56.03;7.20;;;10.90;99.90;;;;;;5050297;28;20435;-74
2023/01/05 05:45:53;;;;;;;47.42;7.05;;;10.90;99.90;;;;;;5050918;28;20024;-74
2023/01/05 05:48:18;;;;;;;56.83;7.32;;;10.90;99.90;;;;;;5050743;28;20079;-74
2023/01/05 05:50:44;;;;;;;49.00;6.45;;;10.90;99.90;;;;;;5050324;28;20017;-74
2023/01/05 05:53:10;;;;;;;47.33;6.72;;;10.90;99.90;;;;;;5050685;28;20021;-74
2023/01/05 05:55:35;;;;;;;53.85;6.53;;;10.90;99.90;;;;;;5049944;28;20165;-74
2023/01/05 05:58:01;;;;;;;54.50;6.40;;;10.90;99.90;;;;;;5041160;28;20072;-74
2023/01/05 06:00:27;;;;;;;56.80;7.03;;;10.90;99.90;;;;;;5035778;28;20371;-75
2023/01/05 06:02:52;;;;;;;52.13;7.38;;;10.90;99.90;;;;;;5050458;28;20026;-74
2023/01/05 06:05:18;;;;;;;54.50;7.10;;;10.90;99.90;;;;;;5050028;28;20053;-74
2023/01/05 06:07:44;;;;;;;50.03;6.50;;;10.90;99.90;;;;;;5050432;28;20421;-74
2023/01/05 06:10:09;;;;;;;48.08;6.80;;;10.90;99.90;;;;;;5050292;28;20409;-74
2023/01/05 06:12:35;;;;;;;42.85;6.75;;;10.90;99.90;;;;;;5052240;28;20497;-74
2023/01/05 06:15:00;;;;;;;51.05;7.75;;;10.90;99.90;;;;;;5049766;28;20025;-74
2023/01/05 06:17:26;;;;;;;48.60;7.07;;;10.90;99.90;;;;;;5049200;28;20025;-74
2023/01/05 06:19:52;;;;;;;44.15;6.22;;;10.90;99.90;;;;;;5052062;28;20025;-74
2023/01/05 06:22:17;;;;;;;47.08;6.78;;;10.90;99.90;;;;;;5050395;28;20032;-74
2023/01/05 06:24:43;;;;;;;50.63;6.95;;;10.90;99.90;;;;;;5036624;28;20590;-74
2023/01/05 06:27:09;;;;;;;48.08;6.78;;;10.90;99.90;;;;;;5062858;28;20079;-74
2023/01/05 06:29:35;;;;;;;53.15;6.57;;;10.90;99.90;;;;;;5050175;28;20017;-74
2023/01/05 06:32:00;;;;;;;46.05;6.93;;;10.90;99.90;;;;;;5048540;28;20127;-73
2023/01/05 06:34:26;;;;;;;55.13;7.43;;;10.90;99.90;;;;;;5050906;28;20276;-73
2023/01/05 06:36:52;;;;;;;44.80;6.80;;;10.80;99.90;;;;;;5050379;28;20391;-73
2023/01/05 06:39:18;;;;;;;53.25;7.93;;;10.80;99.90;;;;;;5050788;28;20077;-74
2023/01/05 06:41:44;;;;;;;53.63;6.93;;;10.90;99.90;;;;;;5056037;28;20475;-74
2023/01/05 06:44:10;;;;;;;47.03;6.57;;;10.80;99.90;;;;;;5057541;28;20020;-74
2023/01/05 06:46:35;;;;;;;53.58;7.18;;;10.80;99.90;;;;;;5056804;28;20398;-73
2023/01/05 06:49:01;;;;;;;53.03;7.18;;;10.80;99.90;;;;;;5053778;28;20021;-73
2023/01/05 06:51:26;;;;;;;49.35;7.20;;;10.80;99.90;;;;;;5054165;28;20025;-74
2023/01/05 06:53:52;;;;;;;45.00;6.75;;;10.80;99.90;;;;;;5053902;28;20056;-72
2023/01/05 06:56:18;;;;;;;59.65;6.93;;;10.80;99.90;;;;;;5052436;28;20025;-72
2023/01/05 06:58:44;;;;;;;49.40;6.60;;;10.80;99.90;;;;;;5053249;28;20019;-72
2023/01/05 07:01:10;;;;;;;56.30;7.57;;;10.80;99.90;;;;;;5050857;28;20033;-72
2023/01/05 07:03:36;;;;;;;50.08;7.22;;;10.70;99.90;;;;;;5053659;28;20031;-72
2023/01/05 07:06:03;;;;;;;46.70;7.15;;;10.70;99.90;;;;;;5058750;28;20044;-74
2023/01/05 07:08:28;;;;;;;58.78;6.97;;;10.70;99.90;;;;;;5053017;28;20398;-73
2023/01/05 07:10:54;;;;;;;42.00;6.60;;;10.70;99.90;;;;;;5052802;28;20060;-73
2023/01/05 07:13:20;;;;;;;52.25;7.28;;;10.70;99.90;;;;;;5061593;28;20360;-73
2023/01/05 07:15:46;;;;;;;53.97;7.50;;;10.70;99.90;;;;;;5060746;28;20104;-73
2023/01/05 07:18:11;;;;;;;53.47;6.90;;;10.70;99.90;;;;;;5059075;28;20633;-73
2023/01/05 07:20:37;;;;;;;45.30;6.47;;;10.70;99.90;;;;;;5058440;28;20021;-73
2023/01/05 07:23:03;;;;;;;58.17;7.15;;;10.70;99.90;;;;;;5059535;28;20051;-73
2023/01/05 07:25:30;;;;;;;52.67;7.68;;;10.60;99.90;;;;;;5061658;28;20040;-73
2023/01/05 07:27:56;;;;;;;46.53;6.63;;;10.60;99.90;;;;;;5059880;28;20021;-72
2023/01/05 07:30:23;;;;;;;50.65;7.22;;;10.60;99.90;;;;;;5064584;28;20037;-73
2023/01/05 07:32:48;;;;;;;53.63;6.75;;;10.50;99.90;;;;;;5050033;28;20060;-73
2023/01/05 07:35:14;;;;;;;54.95;7.45;;;10.50;99.90;;;;;;5059272;28;20060;-73
2023/01/05 07:37:40;;;;;;;58.75;7.70;;;10.50;99.90;;;;;;5060530;28;20528;-73
2023/01/05 07:40:06;;;;;;;52.92;7.03;;;10.50;99.90;;;;;;5066252;28;20423;-73
2023/01/05 07:42:32;;;;;;;49.42;7.72;;;10.50;99.90;;;;;;5063565;28;20025;-73
2023/01/05 07:44:57;;;;;;;49.83;7.13;;;10.50;99.90;;;;;;5070138;28;20033;-73
2023/01/05 07:47:23;;;;;;;58.00;7.63;;;10.40;99.90;;;;;;5055714;28;20399;-73
2023/01/05 07:49:49;;;;;;;54.95;7.22;;;10.50;99.90;;;;;;5039198;28;20111;-73
2023/01/05 07:52:15;;;;;;;51.00;7.05;;;10.40;99.90;;;;;;5062250;28;20017;-73
2023/01/05 07:54:41;;;;;;;60.83;7.55;;;10.50;99.90;;;;;;5054971;28;20027;-73
2023/01/05 07:57:07;;;;;;;51.90;7.53;;;10.40;99.90;;;;;;5056970;28;20033;-73
2023/01/05 07:59:32;;;;;;;45.95;6.47;;;10.40;99.90;;;;;;5054939;28;20401;-73
2023/01/05 08:01:58;;;;;;;49.75;6.97;;;10.40;99.90;;;;;;5054339;28;20021;-73
2023/01/05 08:04:23;;;;;;;51.65;7.18;;;10.40;99.90;;;;;;5053083;28;20509;-73
2023/01/05 08:06:50;;;;;;;57.42;6.63;;;10.40;99.90;;;;;;5052339;28;20057;-73
2023/01/05 08:12:00;;;;;;;50.50;6.97;;;10.40;99.90;;;;;;5051856;28;20199;-73
2023/01/05 08:14:25;;;;;;;48.90;6.55;;;10.40;99.90;;;;;;5052566;28;20060;-73
2023/01/05 08:16:51;;;;;;;58.55;6.57;;;10.40;99.90;;;;;;5052233;28;20108;-73
2023/01/05 08:19:18;;;;;;;56.80;6.80;;;10.40;99.90;;;;;;5053555;28;20013;-73
2023/01/05 08:21:44;;;;;;;46.83;6.43;;;10.40;99.90;;;;;;5056976;28;20020;-73
2023/01/05 08:24:09;;;;;;;55.20;7.03;;;10.50;99.90;;;;;;5054255;28;20031;-73
2023/01/05 08:26:35;;;;;;;53.08;6.72;;;10.50;99.90;;;;;;5070381;28;20028;-73
2023/01/05 08:29:01;;;;;;;43.63;6.07;;;10.50;99.90;;;;;;5061033;28;20013;-72
2023/01/05 08:31:29;;;;;;;58.28;8.10;;;10.50;99.90;;;;;;5054626;28;20091;-72
2023/01/05 08:33:58;;;;;;;46.03;6.15;;;10.50;99.90;;;;;;5042146;28;20113;-73
2023/01/05 08:36:25;;;;;;;44.80;6.90;;;10.50;99.90;;;;;;5059727;28;20027;-72
2023/01/05 08:38:54;;;;;;;39.55;6.38;;;10.60;99.90;;;;;;5059518;28;20020;-72
2023/01/05 08:41:42;;;;;;;48.65;6.10;;;10.60;99.90;;;;;;5056734;28;20111;-72
2023/01/05 08:44:13;;;;;;;39.90;6.60;;;10.60;99.90;;;;;;5056869;28;20085;-72
2023/01/05 08:46:38;;;;;;;43.40;6.35;;;10.70;99.90;;;;;;5067966;28;20090;-72
2023/01/05 08:49:06;;;;;;;40.90;6.32;;;10.70;99.90;;;;;;5046552;28;20497;-72
2023/01/05 08:51:32;;;;;;;46.63;6.57;;;10.70;99.90;;;;;;5063235;28;20127;-72
2023/01/05 08:53:58;;;;;;;55.30;6.78;;;10.70;99.90;;;;;;5055182;28;20028;-72
2023/01/05 08:56:25;;;;;;;52.60;6.43;;;10.70;99.90;;;;;;5054225;28;20059;-73
2023/01/05 08:58:52;;;;;;;52.17;6.55;;;10.70;99.90;;;;;;5058810;28;20067;-72
2023/01/05 09:01:20;;;;;;;51.33;7.50;;;10.70;99.90;;;;;;5054566;28;20033;-72
2023/01/05 09:03:46;;;;;;;49.67;6.63;;;10.70;99.90;;;;;;5060821;28;20536;-72
2023/01/05 09:06:13;;;;;;;40.47;5.95;;;10.70;99.90;;;;;;5055788;28;20538;-72
2023/01/05 09:08:40;;;;;;;46.97;6.72;;;10.80;99.90;;;;;;5049167;28;20021;-72
2023/01/05 09:11:13;;;;;;;50.25;6.93;;;10.80;99.90;;;;;;5050829;28;20016;-72
2023/01/05 09:13:40;;;;;;;55.15;7.07;;;10.80;99.90;;;;;;5051961;28;20044;-73
2023/01/05 09:16:09;;;;;;;42.28;6.38;;;10.80;99.90;;;;;;5059981;28;20017;-72
2023/01/05 09:18:35;;;;;;;60.55;7.45;;;10.80;99.90;;;;;;5062988;28;20025;-73
2023/01/05 09:21:02;;;;;;;42.75;6.88;;;10.90;99.90;;;;;;5068054;28;20092;-74
2023/01/05 09:23:27;;;;;;;51.03;6.65;;;10.90;99.90;;;;;;5049103;28;20085;-73
2023/01/05 09:25:53;;;;;;;38.97;5.50;;;10.90;99.90;;;;;;5053462;28;20125;-72
2023/01/05 09:28:19;;;;;;;47.95;6.97;;;10.90;99.90;;;;;;5067891;28;20470;-72
2023/01/05 09:30:44;;;;;;;52.53;7.18;;;10.90;99.90;;;;;;5059641;28;20052;-72
2023/01/05 09:33:10;;;;;;;43.47;7.68;;;11.00;99.90;;;;;;5056670;28;20025;-72
2023/01/05 09:35:36;;;;;;;40.28;6.63;;;10.90;99.90;;;;;;5055615;28;20021;-73
2023/01/05 09:38:02;;;;;;;44.83;6.18;;;10.90;99.90;;;;;;5067724;28;20021;-74
2023/01/05 09:40:33;;;;;;;50.40;7.60;;;11.00;99.90;;;;;;5060241;28;20021;-73
2023/01/05 09:42:59;;;;;;;44.80;7.03;;;11.00;99.90;;;;;;5062080;28;20032;-72
2023/01/05 09:45:27;;;;;;;50.15;7.18;;;11.00;99.90;;;;;;5063438;28;20015;-73
2023/01/05 09:47:56;;;;;;;53.97;6.55;;;11.00;99.90;;;;;;5065992;28;20028;-73
2023/01/05 09:50:24;;;;;;;43.58;6.78;;;11.00;99.90;;;;;;5058436;28;20063;-73
2023/01/05 09:52:52;;;;;;;50.25;7.35;;;11.00;99.90;;;;;;5064674;28;20052;-73
2023/01/05 09:55:21;;;;;;;48.17;7.03;;;11.10;99.90;;;;;;5065798;28;20379;-73
2023/01/05 09:58:04;;;;;;;52.38;7.18;;;11.10;99.90;;;;;;5062795;28;20630;-74
2023/01/05 10:00:30;;;;;;;45.30;6.80;;;11.10;99.90;;;;;;5062371;28;20359;-73
2023/01/05 10:03:05;;;;;;;42.97;6.32;;;11.20;99.90;;;;;;5060597;28;20021;-73
2023/01/05 10:05:35;;;;;;;51.90;6.95;;;11.20;99.90;;;;;;5060695;28;20552;-73
2023/01/05 10:08:06;;;;;;;57.90;7.57;;;11.20;99.90;;;;;;5066815;28;20036;-72
2023/01/05 10:10:40;;;;;;;46.83;7.43;;;11.20;99.90;;;;;;5056758;28;20714;-73
2023/01/05 10:13:10;;;;;;;57.30;7.43;;;11.30;99.90;;;;;;5063104;28;20047;-72
2023/01/05 10:15:41;;;;;;;50.17;6.47;;;11.30;99.90;;;;;;5058851;28;20021;-72
2023/01/05 10:18:28;;;;;;;50.20;7.15;;;11.30;99.90;;;;;;5054551;28;20013;-72
2023/01/05 10:21:29;;;;;;;53.88;7.53;;;11.40;99.90;;;;;;5066103;28;20038;-72
2023/01/05 10:24:07;;;;;;;52.53;8.10;;;11.40;99.90;;;;;;5049008;28;20060;-72
2023/01/05 10:26:59;;;;;;;44.95;7.00;;;11.40;99.90;;;;;;5047980;28;20175;-73
2023/01/05 10:29:45;;;;;;;54.60;8.23;;;11.40;99.90;;;;;;5061587;28;20571;-73
2023/01/05 10:32:35;;;;;;;49.83;7.50;;;11.50;99.90;;;;;;5060515;28;20021;-73
2023/01/05 10:35:07;;;;;;;48.05;7.05;;;11.50;99.90;;;;;;5063133;28;20036;-73
2023/01/05 10:37:41;;;;;;;52.08;7.72;;;11.50;99.90;;;;;;5049482;28;20022;-73
2023/01/05 10:40:19;;;;;;;54.38;7.32;;;11.50;99.90;;;;;;5055413;28;20056;-72
2023/01/05 10:43:00;;;;;;;57.28;6.82;;;11.60;99.90;;;;;;5055377;28;20033;-73
2023/01/05 10:45:29;;;;;;;51.35;7.75;;;11.60;99.90;;;;;;5046179;28;20467;-72
2023/01/05 10:47:56;;;;;;;49.35;7.13;;;11.60;99.90;;;;;;5052492;28;20033;-73
2023/01/05 10:50:36;;;;;;;49.97;7.82;;;11.70;99.90;;;;;;5061468;28;20029;-73
2023/01/05 10:53:08;;;;;;;56.20;7.85;;;11.70;99.90;;;;;;5056411;28;20043;-72
2023/01/05 10:55:43;;;;;;;48.60;6.78;;;11.80;99.90;;;;;;5051334;28;20119;-73
2023/01/05 10:58:41;;;;;;;;;;;11.90;99.90;;;;;;5053165;28;20561;-73
2023/01/05 11:01:26;;;;;;;41.80;6.68;;;11.90;99.90;;;;;;5007222;28;20382;-72
2023/01/05 11:04:04;;;;;;;39.78;7.55;;;11.90;99.90;;;;;;5055547;28;20394;-72
2023/01/05 11:06:33;;;;;;;48.50;6.80;;;12.00;99.90;;;;;;5048776;28;20094;-73
2023/01/05 11:09:24;;;;;;;46.38;7.05;;;12.00;99.90;;;;;;5059784;28;20029;-73
2023/01/05 11:11:54;;;;;;;42.53;6.35;;;12.00;99.90;;;;;;5057674;28;20024;-73
2023/01/05 11:14:21;;;;;;;49.80;6.55;;;12.00;99.90;;;;;;5058876;28;20488;-72
2023/01/05 11:16:51;;;;;;;50.30;6.60;;;12.00;99.90;;;;;;5058676;28;20017;-72
2023/01/05 11:19:21;;;;;;;43.42;6.72;;;12.00;99.90;;;;;;5058041;28;20024;-73
2023/01/05 11:21:47;;;;;;;44.50;6.40;;;12.00;99.90;;;;;;5059775;28;20576;-73
2023/01/05 11:24:33;;;;;;;43.58;6.75;;;12.00;99.90;;;;;;5058866;28;20095;-74
2023/01/05 11:27:02;;;;;;;50.25;6.85;;;12.10;99.90;;;;;;5061747;28;20037;-74
2023/01/05 11:29:29;;;;;;;42.22;6.35;;;12.10;99.90;;;;;;5053225;28;20486;-74
2023/01/05 11:32:03;;;;;;;41.30;6.03;;;12.20;99.90;;;;;;5065305;28;20167;-74
2023/01/05 11:34:46;;;;;;;40.25;6.50;;;12.20;99.90;;;;;;5063850;28;20040;-74
2023/01/05 11:37:15;;;;;;;49.50;6.88;;;12.20;99.90;;;;;;5067116;28;20025;-73
2023/01/05 11:39:46;;;;;;;47.63;6.82;;;12.30;99.90;;;;;;5061488;28;20026;-74
2023/01/05 11:42:34;;;;;;;47.22;6.63;;;12.30;99.90;;;;;;5057869;28;20013;-72
2023/01/05 11:45:06;;;;;;;49.30;6.72;;;12.30;99.90;;;;;;5050273;28;20057;-73
2023/01/05 11:47:43;;;;;;;43.50;7.30;;;12.30;99.90;;;;;;5049223;28;20021;-73
2023/01/05 11:50:08;;;;;;;50.20;7.07;;;12.30;99.90;;;;;;5052230;28;20029;-73
2023/01/05 11:52:44;;;;;;;50.53;7.35;;;12.30;99.90;;;;;;5054000;28;20032;-73
2023/01/05 11:55:18;;;;;;;50.25;6.88;;;12.30;99.90;;;;;;5052521;28;20079;-74
2023/01/05 11:57:45;;;;;;;47.03;7.63;;;12.30;99.90;;;;;;5042922;28;20671;-73
2023/01/05 12:00:31;;;;;;;59.22;8.55;;;12.30;99.90;;;;;;5054794;28;20013;-73
2023/01/05 12:03:15;;;;;;;43.45;7.40;;;12.30;99.90;;;;;;5035509;28;20120;-73
2023/01/05 12:05:52;;;;;;;54.60;7.18;;;12.30;99.90;;;;;;5056869;28;20097;-73
2023/01/05 12:08:31;;;;;;;49.08;7.40;;;12.20;99.90;;;;;;5054089;28;20025;-73
2023/01/05 12:11:20;;;;;;;43.90;7.38;;;12.10;99.90;;;;;;5057519;28;20124;-73
2023/01/05 12:14:23;;;;;;;53.88;7.22;;;12.10;99.90;;;;;;5039064;28;20030;-72
2023/01/05 12:16:56;;;;;;;51.00;7.75;;;12.00;99.90;;;;;;5042301;28;20095;-73
2023/01/05 12:19:43;;;;;;;54.65;7.85;;;12.00;99.90;;;;;;5056614;28;20676;-73
2023/01/05 12:22:12;;;;;;;46.38;6.55;;;12.00;99.90;;;;;;5061782;28;20028;-73
2023/01/05 12:25:04;;;;;;;49.00;6.47;;;11.90;99.90;;;;;;5063624;28;20067;-74
2023/01/05 12:27:49;;;;;;;58.10;7.13;;;11.90;99.90;;;;;;5056972;28;20059;-74
2023/01/05 12:30:32;;;;;;;48.20;6.53;;;11.90;99.90;;;;;;5062768;28;20024;-73
2023/01/05 12:33:10;;;;;;;40.95;6.32;;;11.90;99.90;;;;;;5060921;28;20020;-74
2023/01/05 12:36:11;;;;;;;46.33;7.32;;;11.90;99.90;;;;;;5053063;28;20029;-73
2023/01/05 12:38:55;;;;;;;57.67;6.95;;;12.00;99.90;;;;;;4986677;28;20077;-73
2023/01/05 12:41:47;;;;;;;50.38;6.97;;;12.00;99.90;;;;;;4986271;28;20551;-73
2023/01/05 12:44:18;;;;;;;42.38;6.30;;;12.00;99.90;;;;;;4985638;28;20033;-74
2023/01/05 12:47:15;;;;;;;43.35;5.90;;;12.00;99.90;;;;;;4988520;28;20156;-73
2023/01/05 12:49:52;;;;;;;39.92;6.30;;;12.00;99.90;;;;;;4956816;28;20034;-74
2023/01/05 12:52:35;;;;;;;37.55;6.28;;;12.00;99.90;;;;;;4988514;28;20038;-74
2023/01/05 12:55:04;;;;;;;39.72;6.43;;;12.00;99.90;;;;;;4988519;28;20475;-74
2023/01/05 12:57:44;;;;;;;50.17;6.20;;;12.00;99.90;;;;;;4986045;28;20019;-74
2023/01/05 13:00:13;;;;;;;47.03;6.50;;;12.00;99.90;;;;;;4988577;28;20066;-74
2023/01/05 13:03:01;;;;;;;49.35;6.18;;;12.00;99.90;;;;;;4988481;28;20038;-74
2023/01/05 13:05:27;;;;;;;44.08;6.00;;;12.00;99.90;;;;;;4988422;28;20040;-74
2023/01/05 13:08:05;;;;;;;45.15;5.88;;;12.00;99.90;;;;;;4988061;28;20105;-74
2023/01/05 13:10:55;;;;;;;52.58;6.88;;;12.00;99.90;;;;;;4989227;28;20105;-74
2023/01/05 13:13:36;;;;;;;45.47;6.55;;;12.00;99.90;;;;;;4981666;28;20408;-74
2023/01/05 13:16:26;;;;;;;39.17;6.32;;;12.00;99.90;;;;;;5041054;28;20075;-74
2023/01/05 13:18:54;;;;;;;44.40;6.43;;;12.00;99.90;;;;;;5050775;28;20033;-74
2023/01/05 13:21:21;;;;;;;49.28;6.82;;;12.00;99.90;;;;;;5052717;28;20067;-74
2023/01/05 13:23:54;;;;;;;50.50;6.78;;;12.00;99.90;;;;;;5069704;28;20035;-75
2023/01/05 13:26:21;;;;;;;51.90;6.85;;;12.10;99.90;;;;;;5048917;28;20079;-75